createdAt,value
2017-12-08T00:02:02.461Z,7.30
2017-12-08T00:04:30.701Z,7.10
2017-12-08T00:06:58.181Z,7.10
2017-12-08T00:09:25.677Z,7.00
2017-12-08T00:11:53.150Z,6.90
2017-12-08T00:14:20.625Z,6.80
2017-12-08T00:16:48.121Z,6.80
2017-12-08T00:19:15.593Z,6.70
2017-12-08T00:21:43.829Z,6.60
2017-12-08T00:24:11.320Z,6.60
2017-12-08T00:26:39.561Z,6.60
2017-12-08T00:29:07.033Z,6.60
2017-12-08T00:31:34.521Z,6.60
2017-12-08T00:34:02.757Z,6.60
2017-12-08T00:36:30.233Z,6.60
2017-12-08T00:38:57.728Z,6.60
2017-12-08T00:41:25.202Z,6.70
2017-12-08T00:43:52.683Z,6.80
2017-12-08T00:46:20.174Z,6.80
2017-12-08T00:48:48.410Z,6.80
2017-12-08T00:51:15.885Z,6.80
2017-12-08T00:53:43.380Z,6.80
2017-12-08T00:56:10.917Z,6.80
2017-12-08T00:58:39.177Z,6.70
2017-12-08T01:01:06.669Z,6.70
2017-12-08T01:03:34.141Z,6.70
2017-12-08T01:06:01.614Z,6.80
2017-12-08T01:08:29.950Z,6.70
2017-12-08T01:10:58.185Z,6.80
2017-12-08T01:13:25.657Z,6.80
2017-12-08T01:15:53.153Z,6.80
2017-12-08T01:18:20.635Z,6.90
2017-12-08T01:20:48.109Z,6.90
2017-12-08T01:23:15.605Z,7.00
2017-12-08T01:25:43.850Z,7.00
2017-12-08T01:28:11.329Z,7.00
2017-12-08T01:30:39.585Z,7.00
2017-12-08T01:33:07.065Z,7.00
2017-12-08T01:35:35.306Z,7.00
2017-12-08T01:38:02.798Z,7.00
2017-12-08T01:40:31.038Z,7.00
2017-12-08T01:42:58.514Z,7.00
2017-12-08T01:45:26.009Z,7.00
2017-12-08T01:47:53.478Z,7.00
2017-12-08T01:50:20.951Z,7.10
2017-12-08T01:52:48.445Z,7.10
2017-12-08T01:55:15.917Z,7.10
2017-12-08T01:57:44.153Z,7.10
2017-12-08T02:00:11.645Z,7.10
2017-12-08T02:02:39.113Z,7.10
2017-12-08T02:05:07.350Z,7.10
2017-12-08T02:07:34.845Z,7.10
2017-12-08T02:10:03.081Z,7.20
2017-12-08T02:12:30.553Z,7.20
2017-12-08T02:14:58.045Z,7.20
2017-12-08T02:17:25.522Z,7.20
2017-12-08T02:19:52.993Z,7.20
2017-12-08T02:22:20.500Z,7.20
2017-12-08T02:24:48.745Z,7.10
2017-12-08T02:27:16.251Z,7.10
2017-12-08T02:29:44.501Z,7.20
2017-12-08T02:32:11.973Z,7.10
2017-12-08T02:34:40.217Z,7.20
2017-12-08T02:37:07.709Z,7.20
2017-12-08T02:39:36.225Z,7.20
2017-12-08T02:42:03.693Z,7.10
2017-12-08T02:44:31.185Z,7.20
2017-12-08T02:46:59.443Z,7.20
2017-12-08T02:49:27.050Z,7.20
2017-12-08T02:51:54.977Z,7.30
2017-12-08T02:54:23.241Z,7.20
2017-12-08T02:56:50.718Z,7.20
2017-12-08T02:59:18.206Z,7.20
2017-12-08T03:01:45.693Z,7.20
2017-12-08T03:04:13.165Z,7.10
2017-12-08T03:06:40.657Z,7.00
2017-12-08T03:09:08.896Z,6.90
2017-12-08T03:11:36.369Z,6.90
2017-12-08T03:14:03.857Z,6.90
2017-12-08T03:16:32.313Z,6.80
2017-12-08T03:18:59.786Z,6.80
2017-12-08T03:21:28.042Z,6.70
2017-12-08T03:23:55.515Z,6.70
2017-12-08T03:26:22.997Z,6.70
2017-12-08T03:28:50.533Z,6.70
2017-12-08T03:31:18.771Z,6.60
2017-12-08T03:33:46.250Z,6.60
2017-12-08T03:36:13.741Z,6.60
2017-12-08T03:38:41.532Z,6.60
2017-12-08T03:41:09.008Z,6.60
2017-12-08T03:43:36.501Z,6.60
2017-12-08T03:46:04.749Z,6.60
2017-12-08T03:48:32.997Z,6.60
2017-12-08T03:51:00.762Z,6.60
2017-12-08T03:53:28.527Z,6.60
2017-12-08T03:55:56.002Z,6.60
2017-12-08T03:58:23.492Z,6.60
2017-12-08T04:00:51.734Z,6.50
2017-12-08T04:03:19.206Z,6.50
2017-12-08T04:05:46.701Z,6.50
2017-12-08T04:08:14.178Z,6.40
2017-12-08T04:10:41.649Z,6.40
2017-12-08T04:13:09.137Z,6.40
2017-12-08T04:15:36.869Z,6.40
2017-12-08T04:18:04.402Z,6.40
2017-12-08T04:20:31.890Z,6.40
2017-12-08T04:22:59.362Z,6.50
2017-12-08T04:25:26.845Z,6.40
2017-12-08T04:27:55.160Z,6.40
2017-12-08T04:30:22.624Z,6.40
2017-12-08T04:32:50.141Z,6.40
2017-12-08T04:35:18.397Z,6.40
2017-12-08T04:37:45.871Z,6.40
2017-12-08T04:40:13.583Z,6.40
2017-12-08T04:42:41.077Z,6.40
2017-12-08T04:45:08.549Z,6.30
2017-12-08T04:47:36.018Z,6.30
2017-12-08T04:50:04.277Z,6.20
2017-12-08T04:52:31.990Z,6.20
2017-12-08T04:54:59.465Z,6.20
2017-12-08T04:57:26.961Z,6.10
2017-12-08T04:59:55.201Z,6.10
2017-12-08T05:02:22.674Z,6.00
2017-12-08T05:04:50.168Z,6.00
2017-12-08T05:07:18.405Z,6.00
2017-12-08T05:09:45.880Z,6.00
2017-12-08T05:12:14.144Z,5.90
2017-12-08T05:14:41.626Z,5.90
2017-12-08T05:17:09.861Z,5.90
2017-12-08T05:19:37.354Z,5.90
2017-12-08T05:22:05.594Z,5.90
2017-12-08T05:24:33.853Z,5.80
2017-12-08T05:27:01.346Z,5.80
2017-12-08T05:29:28.817Z,5.80
2017-12-08T05:31:57.052Z,5.80
2017-12-08T05:34:24.540Z,5.80
2017-12-08T05:36:52.008Z,5.80
2017-12-08T05:39:20.281Z,5.80
2017-12-08T05:41:47.981Z,5.80
2017-12-08T05:44:15.454Z,5.80
2017-12-08T05:46:42.925Z,5.80
2017-12-08T05:49:10.418Z,5.80
2017-12-08T05:51:38.654Z,5.80
2017-12-08T05:54:06.156Z,5.80
2017-12-08T05:56:34.665Z,5.70
2017-12-08T05:59:02.161Z,5.70
2017-12-08T06:01:29.637Z,5.70
2017-12-08T06:03:57.954Z,5.70
2017-12-08T06:06:25.685Z,5.70
2017-12-08T06:08:53.920Z,5.70
2017-12-08T06:11:21.413Z,5.70
2017-12-08T06:13:49.661Z,5.70
2017-12-08T06:16:17.129Z,5.70
2017-12-08T06:18:44.617Z,5.60
2017-12-08T06:21:12.089Z,5.60
2017-12-08T06:23:39.558Z,5.60
2017-12-08T06:26:07.053Z,5.60
2017-12-08T06:28:34.702Z,5.60
2017-12-08T06:31:02.173Z,5.50
2017-12-08T06:33:29.665Z,5.50
2017-12-08T06:35:57.138Z,5.50
2017-12-08T06:38:24.609Z,5.60
2017-12-08T06:40:52.369Z,5.60
2017-12-08T06:43:19.845Z,5.60
2017-12-08T06:45:47.313Z,5.50
2017-12-08T06:48:14.812Z,5.50
2017-12-08T06:50:43.166Z,5.50
2017-12-08T06:53:10.641Z,5.50
2017-12-08T06:55:38.894Z,5.50
2017-12-08T06:58:06.365Z,5.50
2017-12-08T07:00:34.630Z,5.40
2017-12-08T07:03:02.121Z,5.40
2017-12-08T07:05:29.690Z,5.40
2017-12-08T07:07:57.161Z,5.40
2017-12-08T07:10:24.658Z,5.30
2017-12-08T07:12:53.673Z,5.30
2017-12-08T07:15:21.910Z,5.30
2017-12-08T07:17:49.401Z,5.30
2017-12-08T07:20:17.646Z,5.30
2017-12-08T07:22:45.129Z,5.20
2017-12-08T07:25:13.389Z,5.20
2017-12-08T07:27:40.862Z,5.20
2017-12-08T07:30:09.101Z,5.10
2017-12-08T07:32:36.593Z,5.10
2017-12-08T07:35:04.829Z,5.00
2017-12-08T07:37:32.314Z,5.00
2017-12-08T07:40:00.624Z,5.00
2017-12-08T07:42:28.109Z,5.00
2017-12-08T07:44:55.582Z,4.90
2017-12-08T07:47:23.073Z,4.90
2017-12-08T07:49:51.309Z,4.90
2017-12-08T07:52:18.781Z,4.80
2017-12-08T07:54:46.274Z,4.90
2017-12-08T07:57:14.514Z,4.80
2017-12-08T07:59:41.992Z,4.80
2017-12-08T08:02:09.806Z,4.80
2017-12-08T08:04:37.302Z,4.70
2017-12-08T08:07:04.765Z,4.70
2017-12-08T08:09:32.257Z,4.70
2017-12-08T08:11:59.725Z,4.70
2017-12-08T08:14:27.197Z,4.70
2017-12-08T08:16:54.689Z,4.70
2017-12-08T08:19:22.157Z,4.70
2017-12-08T08:21:49.635Z,4.80
2017-12-08T08:24:17.177Z,4.80
2017-12-08T08:26:45.418Z,4.70
2017-12-08T08:29:12.889Z,4.70
2017-12-08T08:31:40.382Z,4.60
2017-12-08T08:34:07.930Z,4.60
2017-12-08T08:36:36.166Z,4.70
2017-12-08T08:39:03.682Z,4.70
2017-12-08T08:41:32.197Z,4.70
2017-12-08T08:44:00.061Z,4.70
2017-12-08T08:46:27.565Z,4.90
2017-12-08T08:48:55.808Z,4.80
2017-12-08T08:51:23.281Z,4.80
2017-12-08T08:53:50.773Z,4.70
2017-12-08T08:56:18.245Z,4.70
2017-12-08T08:58:45.726Z,4.50
2017-12-08T09:01:13.222Z,4.60
2017-12-08T09:03:41.466Z,4.50
2017-12-08T09:06:08.949Z,4.40
2017-12-08T09:08:36.447Z,4.50
2017-12-08T09:11:03.921Z,4.40
2017-12-08T09:13:31.389Z,4.40
2017-12-08T09:15:58.881Z,4.50
2017-12-08T09:18:26.449Z,4.70
2017-12-08T09:20:54.693Z,5.60
2017-12-08T09:23:22.185Z,5.60
2017-12-08T09:25:50.437Z,5.80
2017-12-08T09:28:18.942Z,5.80
2017-12-08T09:30:47.429Z,5.70
2017-12-08T09:33:14.905Z,5.70
2017-12-08T09:35:42.377Z,5.60
2017-12-08T09:38:09.869Z,5.60
2017-12-08T09:40:37.341Z,5.40
2017-12-08T09:43:05.586Z,5.40
2017-12-08T09:45:33.845Z,5.60
2017-12-08T09:48:01.322Z,5.60
2017-12-08T09:50:29.726Z,5.60
2017-12-08T09:52:57.401Z,5.60
2017-12-08T09:55:25.737Z,5.40
2017-12-08T09:57:53.229Z,5.40
2017-12-08T10:00:21.534Z,5.10
2017-12-08T10:02:49.113Z,5.10
2017-12-08T10:05:16.615Z,5.10
2017-12-08T10:07:44.129Z,5.10
2017-12-08T10:10:11.982Z,5.10
2017-12-08T10:12:39.457Z,5.10
2017-12-08T10:15:06.954Z,5.40
2017-12-08T10:17:34.661Z,5.90
2017-12-08T10:20:02.370Z,5.90
2017-12-08T10:22:29.893Z,5.70
2017-12-08T10:24:57.491Z,5.70
2017-12-08T10:27:25.737Z,5.60
2017-12-08T10:29:53.233Z,5.50
2017-12-08T10:32:21.477Z,6.10
2017-12-08T10:34:48.962Z,6.10
2017-12-08T10:37:16.465Z,6.70
2017-12-08T10:39:43.945Z,7.20
2017-12-08T10:42:11.421Z,7.40
2017-12-08T10:44:39.146Z,7.00
2017-12-08T10:47:06.909Z,6.70
2017-12-08T10:49:34.382Z,6.40
2017-12-08T10:52:01.885Z,6.00
2017-12-08T10:54:30.133Z,5.80
2017-12-08T10:56:57.606Z,5.80
2017-12-08T10:59:25.106Z,5.80
2017-12-08T11:01:52.582Z,5.90
2017-12-08T11:04:20.053Z,6.10
2017-12-08T11:06:47.545Z,6.10
2017-12-08T11:09:16.070Z,5.80
2017-12-08T11:11:43.542Z,5.80
2017-12-08T11:14:11.041Z,5.70
2017-12-08T11:16:39.282Z,5.70
2017-12-08T11:19:06.761Z,5.70
2017-12-08T11:21:34.254Z,5.60
2017-12-08T11:24:01.725Z,5.50
2017-12-08T11:26:29.204Z,5.80
2017-12-08T11:28:57.465Z,6.10
2017-12-08T11:31:24.977Z,6.10
2017-12-08T11:33:53.221Z,8.20
2017-12-08T11:36:20.718Z,8.20
2017-12-08T11:38:48.957Z,9.60
2017-12-08T11:41:16.426Z,9.60
2017-12-08T11:43:43.985Z,9.90
2017-12-08T11:46:11.454Z,9.50
2017-12-08T11:48:39.709Z,9.40
2017-12-08T11:51:07.198Z,9.40
2017-12-08T11:53:35.430Z,8.40
2017-12-08T11:56:02.935Z,8.40
2017-12-08T11:58:31.198Z,7.50
2017-12-08T12:00:59.433Z,7.30
2017-12-08T12:03:27.138Z,7.30
2017-12-08T12:05:55.402Z,6.80
2017-12-08T12:08:23.118Z,6.80
2017-12-08T12:10:50.597Z,6.80
2017-12-08T12:13:18.093Z,6.70
2017-12-08T12:15:45.566Z,7.10
2017-12-08T12:18:13.144Z,7.70
2017-12-08T12:20:40.637Z,7.90
2017-12-08T12:23:08.116Z,7.80
2017-12-08T12:25:36.402Z,7.50
2017-12-08T12:28:04.657Z,7.30
2017-12-08T12:30:32.137Z,7.30
2017-12-08T12:33:00.390Z,6.90
2017-12-08T12:35:27.966Z,6.90
2017-12-08T12:37:56.205Z,6.30
2017-12-08T12:40:23.678Z,6.30
2017-12-08T12:42:51.169Z,5.90
2017-12-08T12:45:19.405Z,5.20
2017-12-08T12:47:46.878Z,5.20
2017-12-08T12:50:14.378Z,4.80
2017-12-08T12:52:41.897Z,4.00
2017-12-08T12:55:10.137Z,3.50
2017-12-08T12:57:37.629Z,3.50
2017-12-08T13:00:05.108Z,3.40
2017-12-08T13:02:32.585Z,3.20
2017-12-08T13:05:00.112Z,3.20
2017-12-08T13:07:28.358Z,3.00
2017-12-08T13:09:55.846Z,3.00
2017-12-08T13:12:24.100Z,2.60
2017-12-08T13:14:51.578Z,2.60
2017-12-08T13:17:19.825Z,2.60
2017-12-08T13:19:47.327Z,2.60
2017-12-08T13:22:14.802Z,2.70
2017-12-08T13:24:42.280Z,3.10
2017-12-08T13:27:09.769Z,3.70
2017-12-08T13:29:37.244Z,4.20
2017-12-08T13:32:05.486Z,4.30
2017-12-08T13:34:32.982Z,4.20
2017-12-08T13:37:00.460Z,4.00
2017-12-08T13:39:28.022Z,3.90
2017-12-08T13:41:55.541Z,3.60
2017-12-08T13:44:23.781Z,3.40
2017-12-08T13:46:51.292Z,3.40
2017-12-08T13:49:18.917Z,3.40
2017-12-08T13:51:46.400Z,3.30
2017-12-08T13:54:26.897Z,3.10
2017-12-08T13:56:54.376Z,3.10
2017-12-08T13:59:21.858Z,3.10
2017-12-08T14:01:49.525Z,3.00
2017-12-08T14:04:17.002Z,3.00
2017-12-08T14:06:44.478Z,2.90
2017-12-08T14:09:11.973Z,2.90
2017-12-08T14:11:39.445Z,3.00
2017-12-08T14:14:06.917Z,3.00
2017-12-08T14:16:35.178Z,2.90
2017-12-08T14:19:02.997Z,2.90
2017-12-08T14:21:30.473Z,2.90
2017-12-08T14:23:57.993Z,2.90
2017-12-08T14:26:25.469Z,2.90
2017-12-08T14:28:52.946Z,2.90
2017-12-08T14:31:20.433Z,2.90
2017-12-08T14:33:48.686Z,2.90
2017-12-08T14:36:16.162Z,2.90
2017-12-08T14:38:43.653Z,2.90
2017-12-08T14:41:11.437Z,2.90
2017-12-08T14:43:38.966Z,2.90
2017-12-08T14:46:06.472Z,2.90
2017-12-08T14:48:33.946Z,2.90
2017-12-08T14:51:01.428Z,3.00
2017-12-08T14:53:29.699Z,3.10
2017-12-08T14:55:57.235Z,3.10
2017-12-08T14:58:24.714Z,3.00
2017-12-08T15:00:52.998Z,2.60
2017-12-08T15:03:21.237Z,2.40
2017-12-08T15:05:48.717Z,2.40
2017-12-08T15:08:17.116Z,2.20
2017-12-08T15:10:44.598Z,2.20
2017-12-08T15:13:12.069Z,2.10
2017-12-08T15:15:39.564Z,2.00
2017-12-08T15:18:07.121Z,1.80
2017-12-08T15:20:34.601Z,1.80
2017-12-08T15:23:03.118Z,1.80
2017-12-08T15:25:30.673Z,1.80
2017-12-08T15:27:58.149Z,1.80
2017-12-08T15:30:25.685Z,1.70
2017-12-08T15:32:53.158Z,1.70
2017-12-08T15:35:20.637Z,1.70
2017-12-08T15:37:48.132Z,1.70
2017-12-08T15:40:15.610Z,1.60
2017-12-08T15:42:43.085Z,1.50
2017-12-08T15:45:10.581Z,1.50
2017-12-08T15:47:38.897Z,1.40
2017-12-08T15:50:06.570Z,1.40
2017-12-08T15:52:34.085Z,1.40
2017-12-08T15:55:02.338Z,1.20
2017-12-08T15:57:29.821Z,1.20
2017-12-08T15:59:58.086Z,1.30
2017-12-08T16:02:26.330Z,1.30
2017-12-08T16:04:53.822Z,1.30
2017-12-08T16:07:22.086Z,1.30
2017-12-08T16:09:49.585Z,1.30
2017-12-08T16:12:17.065Z,1.30
2017-12-08T16:14:44.569Z,1.30
2017-12-08T16:17:12.849Z,1.30
2017-12-08T16:19:41.089Z,1.20
2017-12-08T16:22:08.585Z,1.20
2017-12-08T16:24:36.834Z,1.30
2017-12-08T16:27:05.814Z,1.20
2017-12-08T16:29:33.313Z,1.20
2017-12-08T16:32:01.558Z,1.20
2017-12-08T16:34:29.041Z,1.20
2017-12-08T16:36:57.302Z,1.20
2017-12-08T16:39:24.811Z,1.20
2017-12-08T16:41:52.290Z,1.10
2017-12-08T16:44:20.141Z,1.10
2017-12-08T16:46:47.612Z,1.00
2017-12-08T16:49:15.089Z,1.00
2017-12-08T16:51:42.595Z,1.00
2017-12-08T16:54:10.081Z,1.00
2017-12-08T16:56:37.583Z,0.90
2017-12-08T16:59:05.846Z,0.90
2017-12-08T17:01:33.341Z,0.90
2017-12-08T17:04:00.821Z,0.90
2017-12-08T17:06:28.313Z,0.90
2017-12-08T17:08:56.556Z,0.90
2017-12-08T17:11:24.053Z,0.90
2017-12-08T17:13:51.551Z,0.90
2017-12-08T17:16:19.033Z,1.00
2017-12-08T17:18:46.509Z,1.00
2017-12-08T17:21:14.553Z,0.90
2017-12-08T17:23:42.045Z,1.00
2017-12-08T17:26:11.037Z,1.00
2017-12-08T17:28:39.032Z,1.00
2017-12-08T17:31:07.553Z,1.00
2017-12-08T17:33:35.029Z,1.00
2017-12-08T17:36:02.526Z,1.10
2017-12-08T17:51:26.509Z,2.20
2017-12-08T17:53:53.985Z,2.40
2017-12-08T17:56:21.465Z,2.30
2017-12-08T17:58:48.957Z,2.20
2017-12-08T18:01:17.193Z,1.90
2017-12-08T18:03:44.672Z,1.90
2017-12-08T18:06:12.174Z,1.90
2017-12-08T18:08:39.657Z,1.80
2017-12-08T18:11:07.141Z,1.70
2017-12-08T18:13:36.150Z,1.70
2017-12-08T18:16:04.405Z,1.70
2017-12-08T18:18:31.881Z,1.70
2017-12-08T18:21:00.149Z,1.70
2017-12-08T18:23:28.392Z,1.70
2017-12-08T18:25:55.873Z,1.70
2017-12-08T18:28:23.378Z,1.60
2017-12-08T18:30:50.859Z,1.60
2017-12-08T18:33:18.332Z,1.60
2017-12-08T18:35:45.829Z,1.70
2017-12-08T18:38:13.315Z,1.70
2017-12-08T18:40:40.809Z,1.70
2017-12-08T18:43:08.306Z,1.70
2017-12-08T18:45:36.556Z,1.60
2017-12-08T18:48:04.034Z,1.60
2017-12-08T18:50:32.521Z,1.70
2017-12-08T18:53:00.005Z,1.70
2017-12-08T18:55:27.484Z,1.70
2017-12-08T18:57:55.017Z,1.60
2017-12-08T19:00:22.474Z,1.70
2017-12-08T19:02:49.945Z,1.70
2017-12-08T19:05:17.553Z,1.70
2017-12-08T19:07:45.801Z,1.70
2017-12-08T19:10:13.290Z,1.70
2017-12-08T19:12:41.550Z,1.70
2017-12-08T19:15:09.025Z,1.60
2017-12-08T19:17:37.260Z,1.70
2017-12-08T19:20:04.765Z,1.70
2017-12-08T19:22:33.007Z,1.70
2017-12-08T19:25:00.494Z,1.70
2017-12-08T19:27:27.996Z,1.70
2017-12-08T19:29:55.469Z,1.70
2017-12-08T19:32:22.950Z,1.70
2017-12-08T19:34:50.461Z,1.70
2017-12-08T19:37:17.937Z,1.80
2017-12-08T19:39:45.412Z,1.70
2017-12-08T19:42:12.918Z,1.70
2017-12-08T19:44:40.389Z,1.70
2017-12-08T19:47:07.862Z,1.70
2017-12-08T19:49:35.366Z,1.70
2017-12-08T19:52:03.610Z,1.70
2017-12-08T19:54:31.090Z,1.70
2017-12-08T19:56:59.361Z,1.70
2017-12-08T19:59:27.606Z,1.60
2017-12-08T20:01:55.085Z,1.60
2017-12-08T20:04:22.585Z,1.60
2017-12-08T20:06:50.059Z,1.70
2017-12-08T20:09:17.537Z,1.70
2017-12-08T20:11:45.038Z,1.70
2017-12-08T20:14:12.523Z,1.70
2017-12-08T20:16:40.011Z,1.70
2017-12-08T20:19:07.522Z,1.70
2017-12-08T20:21:34.997Z,1.70
2017-12-08T20:24:02.474Z,1.70
2017-12-08T20:26:29.966Z,1.70
2017-12-08T20:28:57.447Z,1.70
2017-12-08T20:31:24.918Z,1.70
2017-12-08T20:33:52.413Z,1.70
2017-12-08T20:36:19.883Z,1.70
2017-12-08T20:38:47.352Z,1.60
2017-12-08T20:41:14.861Z,1.60
2017-12-08T20:43:42.330Z,1.60
2017-12-08T20:46:09.825Z,1.60
2017-12-08T20:48:38.099Z,1.60
2017-12-08T20:51:06.357Z,1.60
2017-12-08T20:53:33.846Z,1.60
2017-12-08T20:56:02.109Z,1.70
2017-12-08T20:58:30.353Z,1.70
2017-12-08T21:00:57.825Z,1.70
2017-12-08T21:03:26.100Z,1.70
2017-12-08T21:05:54.341Z,1.70
2017-12-08T21:08:21.809Z,1.70
2017-12-08T21:10:49.306Z,1.60
2017-12-08T21:13:17.585Z,1.50
2017-12-08T21:15:45.826Z,1.50
2017-12-08T21:18:13.331Z,1.50
2017-12-08T21:20:40.811Z,1.60
2017-12-08T21:23:08.282Z,1.60
2017-12-08T21:25:35.792Z,1.50
2017-12-08T21:28:04.033Z,1.60
2017-12-08T21:30:31.509Z,1.60
2017-12-08T21:32:59.018Z,1.60
2017-12-08T21:35:26.506Z,1.60
2017-12-08T21:37:53.998Z,1.60
2017-12-08T21:40:22.269Z,1.60
2017-12-08T21:42:50.799Z,1.60
2017-12-08T21:45:18.355Z,1.60
2017-12-08T21:47:45.845Z,1.60
2017-12-08T21:50:13.321Z,1.60
2017-12-08T21:52:40.797Z,1.70
2017-12-08T21:55:08.306Z,1.70
2017-12-08T21:57:35.793Z,1.70
2017-12-08T22:00:04.038Z,1.70
2017-12-08T22:02:31.781Z,1.60
2017-12-08T22:04:59.266Z,1.70
2017-12-08T22:07:26.745Z,1.70
2017-12-08T22:09:55.017Z,1.60
2017-12-08T22:12:22.501Z,1.60
2017-12-08T22:14:50.741Z,1.60
2017-12-08T22:17:18.241Z,1.60
2017-12-08T22:19:45.720Z,1.60
2017-12-08T22:22:13.195Z,1.60
2017-12-08T22:24:40.698Z,1.60
2017-12-08T22:27:08.945Z,1.50
2017-12-08T22:29:36.428Z,1.40
2017-12-08T22:32:04.689Z,1.50
2017-12-08T22:34:32.169Z,1.50
2017-12-08T22:36:59.653Z,1.40
2017-12-08T22:39:27.153Z,1.40
2017-12-08T22:41:54.640Z,1.40
2017-12-08T22:44:22.122Z,1.20
2017-12-08T22:46:49.632Z,1.20
2017-12-08T22:49:17.106Z,1.20
2017-12-08T22:51:45.355Z,1.10
2017-12-08T22:54:12.854Z,1.10
2017-12-08T22:56:40.338Z,1.10
2017-12-08T22:59:07.817Z,1.10
2017-12-08T23:01:35.313Z,1.10
2017-12-08T23:04:03.557Z,1.10
2017-12-08T23:06:31.034Z,1.10
2017-12-08T23:08:59.302Z,1.10
2017-12-08T23:11:27.553Z,1.10
2017-12-08T23:13:55.033Z,1.10
2017-12-08T23:16:22.564Z,1.10
2017-12-08T23:18:50.065Z,1.10
2017-12-08T23:21:18.585Z,1.00
2017-12-08T23:23:46.101Z,1.10
2017-12-08T23:26:14.349Z,1.00
2017-12-08T23:28:41.836Z,1.00
2017-12-08T23:31:18.213Z,1.00
2017-12-08T23:33:46.010Z,1.00
2017-12-08T23:36:13.486Z,0.90
2017-12-08T23:38:41.082Z,0.90
2017-12-08T23:41:09.329Z,0.90
2017-12-08T23:43:43.906Z,0.90
2017-12-08T23:46:11.389Z,0.90
2017-12-08T23:48:39.676Z,0.90
2017-12-08T23:51:08.021Z,0.90
2017-12-08T23:53:35.501Z,0.80
2017-12-08T23:56:03.274Z,0.80
2017-12-08T23:58:30.768Z,0.70
